createdAt,value
2018-02-24T00:00:23.505Z,101886.52
2018-02-24T00:02:51.041Z,101883.50
2018-02-24T00:05:18.545Z,101882.22
2018-02-24T00:07:46.023Z,101881.34
2018-02-24T00:10:13.525Z,101869.34
2018-02-24T00:12:41.019Z,101877.06
2018-02-24T00:15:08.525Z,101878.77
2018-02-24T00:17:36.047Z,101877.89
2018-02-24T00:20:03.560Z,101872.34
2018-02-24T00:22:31.075Z,101874.05
2018-02-24T00:24:58.569Z,101884.30
2018-02-24T00:27:26.112Z,101890.71
2018-02-24T00:29:53.621Z,101886.00
2018-02-24T00:32:21.167Z,101882.14
2018-02-24T00:34:48.658Z,101884.69
2018-02-24T00:37:16.150Z,101882.97
2018-02-24T00:39:43.653Z,101877.83
2018-02-24T00:42:11.148Z,101877.84
2018-02-24T00:44:38.664Z,101873.52
2018-02-24T00:47:06.158Z,101873.52
2018-02-24T00:49:33.700Z,101870.53
2018-02-24T00:52:01.212Z,101870.94
2018-02-24T00:54:28.705Z,101872.23
2018-02-24T00:56:56.223Z,101874.34
2018-02-24T00:59:23.715Z,101872.62
2018-02-24T01:01:51.227Z,101866.23
2018-02-24T01:04:18.736Z,101869.64
2018-02-24T01:06:46.242Z,101874.80
2018-02-24T01:09:13.745Z,101878.22
2018-02-24T01:11:41.240Z,101882.05
2018-02-24T01:14:08.735Z,101886.34
2018-02-24T01:16:36.223Z,101882.90
2018-02-24T01:19:03.711Z,101885.47
2018-02-24T01:21:31.207Z,101885.05
2018-02-24T01:23:59.275Z,101884.20
2018-02-24T01:26:26.786Z,101883.78
2018-02-24T01:28:54.260Z,101880.36
2018-02-24T01:31:21.753Z,101882.09
2018-02-24T01:33:49.238Z,101883.37
2018-02-24T01:36:16.730Z,101878.66
2018-02-24T01:38:44.228Z,101883.81
2018-02-24T01:41:11.717Z,101882.09
2018-02-24T01:43:39.208Z,101886.41
2018-02-24T01:46:06.701Z,101867.98
2018-02-24T01:48:34.190Z,101873.98
2018-02-24T01:51:01.695Z,101865.00
2018-02-24T01:53:29.173Z,101864.59
2018-02-24T01:55:56.699Z,101865.44
2018-02-24T01:58:24.186Z,101862.45
2018-02-24T02:00:51.688Z,101865.41
2018-02-24T02:03:19.176Z,101867.98
2018-02-24T02:05:46.708Z,101861.16
2018-02-24T02:08:14.207Z,101859.01
2018-02-24T02:10:41.688Z,101867.58
2018-02-24T02:13:09.167Z,101858.61
2018-02-24T02:15:36.660Z,101853.47
2018-02-24T02:18:04.143Z,101852.62
2018-02-24T02:20:31.660Z,101845.36
2018-02-24T02:22:59.154Z,101845.80
2018-02-24T02:25:26.677Z,101850.94
2018-02-24T02:27:54.183Z,101847.52
2018-02-24T02:30:21.672Z,101838.08
2018-02-24T02:35:31.135Z,101844.07
2018-02-24T02:37:58.636Z,101842.80
2018-02-24T02:40:26.138Z,101842.78
2018-02-24T02:42:53.650Z,101842.81
2018-02-24T02:45:21.148Z,101846.66
2018-02-24T02:47:48.637Z,101847.09
2018-02-24T02:50:16.165Z,101841.52
2018-02-24T02:52:43.666Z,101838.09
2018-02-24T02:55:11.156Z,101836.39
2018-02-24T02:57:38.651Z,101840.23
2018-02-24T03:00:06.147Z,101847.09
2018-02-24T03:02:33.641Z,101843.23
2018-02-24T03:05:01.132Z,101838.53
2018-02-24T03:07:28.638Z,101850.52
2018-02-24T03:09:56.136Z,101847.50
2018-02-24T03:12:23.676Z,101853.94
2018-02-24T03:14:51.154Z,101849.22
2018-02-24T03:17:18.653Z,101850.50
2018-02-24T03:19:46.154Z,101850.91
2018-02-24T03:22:13.652Z,101852.66
2018-02-24T03:24:41.131Z,101844.93
2018-02-24T03:27:08.624Z,101842.78
2018-02-24T03:29:36.113Z,101835.94
2018-02-24T03:32:03.615Z,101830.36
2018-02-24T03:34:31.121Z,101832.93
2018-02-24T03:36:58.608Z,101833.34
2018-02-24T03:39:26.111Z,101829.03
2018-02-24T03:41:53.620Z,101829.47
2018-02-24T03:44:21.103Z,101827.75
2018-02-24T03:46:48.622Z,101825.20
2018-02-24T03:49:16.134Z,101830.77
2018-02-24T03:51:43.624Z,101835.89
2018-02-24T03:54:11.138Z,101840.19
2018-02-24T03:56:38.657Z,101841.48
2018-02-24T03:59:06.150Z,101841.90
2018-02-24T04:01:33.631Z,101838.48
2018-02-24T04:04:01.160Z,101832.50
2018-02-24T04:06:28.666Z,101828.64
2018-02-24T04:08:56.151Z,101826.06
2018-02-24T04:11:23.668Z,101826.92
2018-02-24T04:13:51.160Z,101821.37
2018-02-24T04:16:18.683Z,101832.91
2018-02-24T04:18:46.174Z,101823.91
2018-02-24T04:21:13.685Z,101833.77
2018-02-24T04:23:41.173Z,101837.59
2018-02-24T04:26:08.673Z,101835.03
2018-02-24T04:28:36.162Z,101842.75
2018-02-24T04:31:03.671Z,101835.02
2018-02-24T04:33:31.174Z,101840.98
2018-02-24T04:35:58.676Z,101848.27
2018-02-24T04:38:26.163Z,101843.13
2018-02-24T04:40:53.661Z,101846.13
2018-02-24T04:43:21.168Z,101845.23
2018-02-24T04:45:48.646Z,101847.81
2018-02-24T04:48:16.139Z,101851.66
2018-02-24T04:50:43.627Z,101848.64
2018-02-24T04:53:11.152Z,101848.63
2018-02-24T04:55:38.639Z,101851.64
2018-02-24T04:58:06.116Z,101858.90
2018-02-24T05:00:33.616Z,101871.73
2018-02-24T05:03:01.097Z,101875.16
2018-02-24T05:05:28.612Z,101881.55
2018-02-24T05:07:56.108Z,101881.98
2018-02-24T05:10:23.611Z,101884.54
2018-02-24T05:12:51.107Z,101881.11
2018-02-24T05:15:18.602Z,101878.12
2018-02-24T05:17:46.120Z,101887.08
2018-02-24T05:20:13.627Z,101886.66
2018-02-24T05:22:41.110Z,101881.94
2018-02-24T05:25:08.595Z,101881.06
2018-02-24T05:27:36.133Z,101885.74
2018-02-24T05:30:03.644Z,101889.16
2018-02-24T05:32:31.132Z,101890.44
2018-02-24T05:34:58.637Z,101893.83
2018-02-24T05:37:26.136Z,101898.55
2018-02-24T05:39:53.636Z,101897.25
2018-02-24T05:42:21.154Z,101901.98
2018-02-24T05:44:48.678Z,101899.40
2018-02-24T05:47:16.155Z,101905.39
2018-02-24T05:49:43.696Z,101900.67
2018-02-24T05:52:11.183Z,101907.07
2018-02-24T05:54:38.672Z,101906.23
2018-02-24T05:57:06.167Z,101911.36
2018-02-24T05:59:33.659Z,101916.91
2018-02-24T06:02:01.185Z,101916.05
2018-02-24T06:04:28.684Z,101925.91
2018-02-24T06:06:56.210Z,101934.45
2018-02-24T06:09:23.706Z,101938.29
2018-02-24T06:11:51.194Z,101935.70
2018-02-24T06:14:18.688Z,101947.67
2018-02-24T06:16:46.879Z,101950.26
2018-02-24T06:19:14.372Z,101963.08
2018-02-24T06:21:41.913Z,101965.63
2018-02-24T06:24:09.409Z,101963.06
2018-02-24T06:26:36.903Z,101962.63
2018-02-24T06:29:04.406Z,101959.64
2018-02-24T06:31:31.899Z,101971.61
2018-02-24T06:33:59.387Z,101969.02
2018-02-24T06:36:26.921Z,101973.72
2018-02-24T06:38:54.844Z,101978.41
2018-02-24T06:41:22.339Z,101983.98
2018-02-24T06:43:49.848Z,101980.14
2018-02-24T06:46:17.340Z,101980.97
2018-02-24T06:48:44.881Z,101986.11
2018-02-24T06:51:12.398Z,101991.23
2018-02-24T06:53:39.916Z,101990.39
2018-02-24T06:56:07.414Z,102003.66
2018-02-24T06:58:34.894Z,102005.76
2018-02-24T07:01:02.414Z,102010.04
2018-02-24T07:03:29.904Z,102022.42
2018-02-24T07:05:57.419Z,102024.98
2018-02-24T07:08:24.916Z,102032.26
2018-02-24T07:10:52.441Z,102039.51
2018-02-24T07:13:19.957Z,102040.34
2018-02-24T07:15:47.457Z,102044.20
2018-02-24T07:18:14.946Z,102045.45
2018-02-24T07:20:42.438Z,102052.28
2018-02-24T07:23:09.929Z,102050.97
2018-02-24T07:25:37.420Z,102050.53
2018-02-24T07:28:04.925Z,102059.06
2018-02-24T07:30:32.427Z,102061.17
2018-02-24T07:32:59.923Z,102067.61
2018-02-24T07:35:27.362Z,102071.88
2018-02-24T07:37:54.845Z,102080.42
2018-02-24T07:40:22.389Z,102073.13
2018-02-24T07:42:49.899Z,102076.55
2018-02-24T07:45:17.396Z,102084.25
2018-02-24T07:47:44.903Z,102080.39
2018-02-24T07:50:12.406Z,102089.38
2018-02-24T07:52:39.971Z,102086.39
2018-02-24T07:55:07.450Z,102086.83
2018-02-24T07:57:34.942Z,102091.11
2018-02-24T08:00:02.449Z,102092.02
2018-02-24T08:02:29.980Z,102097.59
2018-02-24T08:04:57.503Z,102091.19
2018-02-24T08:07:25.025Z,102086.06
2018-02-24T08:09:52.556Z,102090.39
2018-02-24T08:12:20.039Z,102082.72
2018-02-24T08:14:47.535Z,102086.60
2018-02-24T08:19:44.207Z,102082.38
2018-02-24T08:22:11.696Z,102083.67
2018-02-24T08:24:39.213Z,102089.73
2018-02-24T08:27:06.727Z,102088.03
2018-02-24T08:29:34.223Z,102088.09
2018-02-24T08:32:01.720Z,102085.98
2018-02-24T08:34:29.219Z,102089.46
2018-02-24T08:36:56.711Z,102086.51
2018-02-24T08:39:24.198Z,102085.25
2018-02-24T08:41:51.723Z,102084.89
2018-02-24T08:44:19.219Z,102091.75
2018-02-24T08:46:46.715Z,102090.09
2018-02-24T08:49:14.231Z,102084.54
2018-02-24T08:51:41.716Z,102096.58
2018-02-24T08:54:09.150Z,102095.32
2018-02-24T08:56:36.675Z,102093.64
2018-02-24T08:59:04.169Z,102099.26
2018-02-24T09:01:31.689Z,102100.13
2018-02-24T09:03:59.232Z,102101.05
2018-02-24T09:06:26.768Z,102101.06
2018-02-24T09:08:54.274Z,102098.97
2018-02-24T09:11:21.813Z,102101.57
2018-02-24T09:13:49.909Z,102095.61
2018-02-24T09:16:17.553Z,102093.52
2018-02-24T09:18:45.146Z,102096.53
2018-02-24T09:21:13.156Z,102097.84
2018-02-24T09:23:40.707Z,102097.44
2018-02-24T09:26:08.211Z,102096.19
2018-02-24T09:28:35.705Z,102093.61
2018-02-24T09:31:03.227Z,102097.09
2018-02-24T09:33:30.891Z,102105.25
2018-02-24T09:35:58.429Z,102096.70
2018-02-24T09:38:25.976Z,102104.45
2018-02-24T09:40:53.563Z,102103.61
2018-02-24T09:43:21.080Z,102098.88
2018-02-24T09:45:48.703Z,102095.05
2018-02-24T09:48:16.196Z,102086.93
2018-02-24T09:50:43.725Z,102087.78
2018-02-24T09:53:11.229Z,102091.66
2018-02-24T09:55:38.722Z,102089.09
2018-02-24T09:58:06.234Z,102087.41
2018-02-24T10:00:33.736Z,102093.85
2018-02-24T10:03:01.302Z,102085.28
2018-02-24T10:05:29.679Z,102081.44
2018-02-24T10:07:57.176Z,102084.44
2018-02-24T10:10:24.687Z,102080.59
2018-02-24T10:12:52.171Z,102089.20
2018-02-24T10:15:19.712Z,102085.77
2018-02-24T10:17:47.232Z,102088.77
2018-02-24T10:20:14.747Z,102087.92
2018-02-24T10:22:42.252Z,102087.52
2018-02-24T10:25:09.804Z,102081.52
2018-02-24T10:27:37.307Z,102079.38
2018-02-24T10:30:04.824Z,102081.95
2018-02-24T10:32:32.385Z,102076.80
2018-02-24T10:34:59.901Z,102080.69
2018-02-24T10:37:27.442Z,102078.53
2018-02-24T10:39:54.998Z,102079.40
2018-02-24T10:42:22.493Z,102082.41
2018-02-24T10:44:50.003Z,102072.52
2018-02-24T10:47:17.501Z,102075.96
2018-02-24T10:49:45.539Z,102077.27
2018-02-24T10:52:13.240Z,102069.52
2018-02-24T10:54:41.694Z,102068.23
2018-02-24T10:57:09.184Z,102072.95
2018-02-24T10:59:36.728Z,102068.66
2018-02-24T11:02:04.223Z,102075.52
2018-02-24T11:04:31.767Z,102075.11
2018-02-24T11:06:59.299Z,102072.95
2018-02-24T11:09:26.831Z,102078.09
2018-02-24T11:11:54.331Z,102075.95
2018-02-24T11:14:21.823Z,102077.66
2018-02-24T11:16:49.313Z,102076.38
2018-02-24T11:19:16.896Z,102078.93
2018-02-24T11:21:44.479Z,102081.06
2018-02-24T11:24:11.954Z,102069.03
2018-02-24T11:26:39.445Z,102081.05
2018-02-24T11:29:06.969Z,102075.05
2018-02-24T11:31:34.491Z,102074.59
2018-02-24T11:34:01.976Z,102070.29
2018-02-24T11:36:29.496Z,102068.55
2018-02-24T11:38:57.016Z,102060.37
2018-02-24T11:41:24.499Z,102058.67
2018-02-24T11:43:52.001Z,102057.78
2018-02-24T11:46:19.513Z,102052.17
2018-02-24T11:48:47.002Z,102043.58
2018-02-24T11:51:14.500Z,102046.97
2018-02-24T11:53:41.992Z,102051.68
2018-02-24T11:56:09.482Z,102049.05
2018-02-24T11:58:36.999Z,102051.17
2018-02-24T12:01:04.515Z,102042.06
2018-02-24T12:03:32.073Z,102042.02
2018-02-24T12:05:59.507Z,102033.79
2018-02-24T12:08:26.995Z,102025.97
2018-02-24T12:10:54.499Z,102034.49
2018-02-24T12:13:22.037Z,102036.62
2018-02-24T12:15:49.525Z,102031.36
2018-02-24T12:18:17.040Z,102029.97
2018-02-24T12:20:44.531Z,102036.34
2018-02-24T12:23:12.015Z,102028.05
2018-02-24T12:25:45.126Z,102024.50
2018-02-24T12:28:12.634Z,102026.08
2018-02-24T12:30:40.120Z,102028.98
2018-02-24T12:33:07.617Z,102029.75
2018-02-24T12:35:35.132Z,102028.36
2018-02-24T12:38:02.657Z,102033.41
2018-02-24T12:40:30.155Z,102030.69
2018-02-24T12:42:57.667Z,102030.52
2018-02-24T12:45:25.165Z,102025.61
2018-02-24T12:47:52.646Z,102028.95
2018-02-24T12:50:20.149Z,102032.34
2018-02-24T12:52:47.635Z,102035.20
2018-02-24T12:55:15.140Z,102032.49
2018-02-24T12:57:42.638Z,102037.59
2018-02-24T13:00:10.130Z,102032.28
2018-02-24T13:02:37.634Z,102032.28
2018-02-24T13:05:05.136Z,102039.11
2018-02-24T13:07:32.659Z,102042.09
2018-02-24T13:10:00.171Z,102032.93
2018-02-24T13:12:27.679Z,102036.73
2018-02-24T13:14:55.167Z,102036.17
2018-02-24T13:17:22.667Z,102036.46
2018-02-24T13:19:50.158Z,102035.41
2018-02-24T13:22:17.659Z,102036.94
2018-02-24T13:24:45.145Z,102028.95
2018-02-24T13:27:12.637Z,102029.19
2018-02-24T13:29:40.131Z,102028.11
2018-02-24T13:32:07.643Z,102019.71
2018-02-24T13:34:35.149Z,102019.55
2018-02-24T13:37:02.664Z,102015.05
2018-02-24T13:39:30.167Z,102015.33
2018-02-24T13:41:57.709Z,102008.16
2018-02-24T13:44:25.245Z,102011.82
2018-02-24T13:46:52.748Z,102015.04
2018-02-24T13:49:20.240Z,102017.41
2018-02-24T13:51:47.731Z,102011.20
2018-02-24T13:54:15.249Z,102010.95
2018-02-24T13:56:42.776Z,102012.00
2018-02-24T13:59:10.273Z,102000.46
2018-02-24T14:01:37.779Z,102010.23
2018-02-24T14:04:05.273Z,102014.94
2018-02-24T14:06:32.760Z,102010.59
2018-02-24T14:09:00.303Z,102015.24
2018-02-24T14:11:27.837Z,102014.23
2018-02-24T14:13:55.373Z,102016.24
2018-02-24T14:16:22.895Z,102003.91
2018-02-24T14:18:50.439Z,102007.28
2018-02-24T14:21:17.966Z,102014.53
2018-02-24T14:23:45.488Z,102009.98
2018-02-24T14:26:13.007Z,102007.97
2018-02-24T14:28:40.574Z,102009.03
2018-02-24T14:31:08.084Z,102006.41
2018-02-24T14:33:35.628Z,102009.34
2018-02-24T14:36:03.150Z,102008.50
2018-02-24T14:38:30.655Z,101999.41
2018-02-24T14:40:58.167Z,102006.95
2018-02-24T14:43:25.684Z,102013.16
2018-02-24T14:45:53.192Z,102005.41
2018-02-24T14:48:20.720Z,102005.80
2018-02-24T14:50:48.270Z,102004.84
2018-02-24T14:53:15.803Z,102005.99
2018-02-24T14:55:43.304Z,102006.23
2018-02-24T14:58:10.824Z,102006.61
2018-02-24T15:00:38.334Z,102008.25
2018-02-24T15:03:05.875Z,102008.16
2018-02-24T15:05:33.389Z,102005.41
2018-02-24T15:08:00.948Z,102004.89
2018-02-24T15:10:28.468Z,102011.33
2018-02-24T15:12:56.003Z,102016.41
2018-02-24T15:15:23.540Z,102013.73
2018-02-24T15:17:51.053Z,102017.18
2018-02-24T15:20:18.576Z,102017.20
2018-02-24T15:22:46.097Z,102015.08
2018-02-24T15:25:13.602Z,102020.14
2018-02-24T15:27:41.119Z,102016.58
2018-02-24T15:30:08.662Z,102022.02
2018-02-24T15:32:36.165Z,102023.23
2018-02-24T15:35:03.705Z,102017.17
2018-02-24T15:37:31.216Z,102018.95
2018-02-24T15:39:58.734Z,102017.67
2018-02-24T15:42:26.251Z,102017.73
2018-02-24T15:44:53.753Z,102016.02
2018-02-24T15:47:21.269Z,102015.64
2018-02-24T15:49:48.795Z,102023.56
2018-02-24T15:52:16.291Z,102024.51
2018-02-24T15:54:43.811Z,102023.70
2018-02-24T15:57:11.307Z,102028.11
2018-02-24T15:59:38.799Z,102028.19
2018-02-24T16:02:06.315Z,102033.87
2018-02-24T16:04:33.824Z,102027.06
2018-02-24T16:07:01.338Z,102025.53
2018-02-24T16:09:28.873Z,102028.82
2018-02-24T16:11:56.400Z,102023.37
2018-02-24T16:14:23.917Z,102018.44
2018-02-24T16:16:51.446Z,102017.72
2018-02-24T16:19:18.959Z,102012.28
2018-02-24T16:21:46.487Z,102012.52
2018-02-24T16:24:14.004Z,102006.65
2018-02-24T16:26:41.517Z,102014.59
2018-02-24T16:29:09.028Z,102012.63
2018-02-24T16:31:36.546Z,102013.20
2018-02-24T16:34:04.076Z,102010.37
2018-02-24T16:36:31.618Z,102011.73
2018-02-24T16:38:59.191Z,102007.48
2018-02-24T16:41:26.760Z,102008.02
2018-02-24T16:43:54.251Z,102007.67
2018-02-24T16:46:21.806Z,102000.92
2018-02-24T16:48:49.298Z,102003.28
2018-02-24T16:51:16.826Z,101999.57
2018-02-24T16:53:44.354Z,101996.30
2018-02-24T16:56:11.894Z,101996.97
2018-02-24T16:58:39.395Z,101999.31
2018-02-24T17:01:06.941Z,101998.19
2018-02-24T17:03:34.472Z,102001.45
2018-02-24T17:06:01.977Z,102008.61
2018-02-24T17:08:29.485Z,102014.03
2018-02-24T17:10:56.983Z,102019.08
2018-02-24T17:13:24.487Z,102020.27
2018-02-24T17:15:51.994Z,102026.66
2018-02-24T17:18:19.529Z,102023.50
2018-02-24T17:23:26.017Z,102021.01
2018-02-24T17:25:53.499Z,102026.44
2018-02-24T17:28:20.999Z,102027.94
2018-02-24T17:30:48.497Z,102037.20
2018-02-24T17:33:15.998Z,102047.74
2018-02-24T17:35:43.518Z,102053.95
2018-02-24T17:38:11.020Z,102049.78
2018-02-24T17:40:38.517Z,102050.37
2018-02-24T17:43:06.016Z,102053.94
2018-02-24T17:45:33.563Z,102058.80
2018-02-24T17:48:01.048Z,102059.31
2018-02-24T17:50:28.560Z,102060.72
2018-02-24T17:52:56.092Z,102068.54
2018-02-24T17:55:23.672Z,102064.33
2018-02-24T17:57:51.410Z,102065.69
2018-02-24T18:00:18.916Z,102074.38
2018-02-24T18:02:46.424Z,102069.27
2018-02-24T18:05:14.027Z,102071.94
2018-02-24T18:07:41.512Z,102072.86
2018-02-24T18:10:09.019Z,102079.77
2018-02-24T18:12:36.546Z,102076.38
2018-02-24T18:15:04.052Z,102084.17
2018-02-24T18:17:31.568Z,102085.07
2018-02-24T18:19:59.058Z,102091.58
2018-02-24T18:22:26.535Z,102097.63
2018-02-24T18:24:54.044Z,102091.63
2018-02-24T18:27:21.527Z,102091.65
2018-02-24T18:29:49.032Z,102092.94
2018-02-24T18:32:16.524Z,102087.37
2018-02-24T18:34:44.044Z,102089.98
2018-02-24T18:37:11.588Z,102093.00
2018-02-24T18:39:39.041Z,102095.17
2018-02-24T18:42:06.543Z,102093.45
2018-02-24T18:44:34.040Z,102095.62
2018-02-24T18:47:01.536Z,102088.31
2018-02-24T18:49:29.043Z,102097.80
2018-02-24T18:51:56.528Z,102095.22
2018-02-24T18:54:24.045Z,102092.64
2018-02-24T18:56:51.564Z,102090.92
2018-02-24T18:59:19.046Z,102089.66
2018-02-24T19:01:46.548Z,102089.23
2018-02-24T19:04:14.045Z,102091.82
2018-02-24T19:06:41.539Z,102087.96
2018-02-24T19:09:09.040Z,102090.09
2018-02-24T19:11:36.611Z,102095.27
2018-02-24T19:14:04.127Z,102096.12
2018-02-24T19:16:31.628Z,102103.88
2018-02-24T19:18:59.169Z,102108.19
2018-02-24T19:21:26.668Z,102106.88
2018-02-24T19:23:54.144Z,102109.89
2018-02-24T19:26:21.646Z,102111.63
2018-02-24T19:28:49.132Z,102115.48
2018-02-24T19:31:16.623Z,102111.63
2018-02-24T19:33:44.135Z,102119.78
2018-02-24T19:36:11.639Z,102121.09
2018-02-24T19:38:39.152Z,102129.66
2018-02-24T19:41:06.678Z,102134.39
2018-02-24T19:43:34.152Z,102131.81
2018-02-24T19:46:01.647Z,102140.43
2018-02-24T19:48:29.163Z,102144.70
2018-02-24T19:50:56.647Z,102149.86
2018-02-24T19:53:24.150Z,102151.59
2018-02-24T19:55:51.642Z,102151.59
2018-02-24T19:58:19.151Z,102155.03
2018-02-24T20:00:46.687Z,102156.33
2018-02-24T20:03:14.193Z,102148.13
2018-02-24T20:05:41.690Z,102158.87
2018-02-24T20:08:09.183Z,102161.03
2018-02-24T20:10:36.687Z,102161.89
2018-02-24T20:13:04.188Z,102157.16
2018-02-24T20:18:12.644Z,102161.45
2018-02-24T20:20:40.168Z,102161.87
2018-02-24T20:23:07.676Z,102157.16
2018-02-24T20:25:35.198Z,102157.14
2018-02-24T20:28:02.703Z,102152.00
2018-02-24T20:30:30.252Z,102159.30
2018-02-24T20:32:57.738Z,102160.57
2018-02-24T20:35:25.250Z,102153.72
2018-02-24T20:37:52.767Z,102152.85
2018-02-24T20:40:20.271Z,102165.75
2018-02-24T20:42:47.767Z,102172.18
2018-02-24T20:45:15.279Z,102169.60
2018-02-24T20:47:42.800Z,102171.33
2018-02-24T20:50:10.299Z,102169.61
2018-02-24T20:52:37.983Z,102176.47
2018-02-24T20:55:05.520Z,102187.64
2018-02-24T20:57:33.017Z,102193.22
2018-02-24T21:00:00.604Z,102196.25
2018-02-24T21:02:28.182Z,102197.11
2018-02-24T21:04:55.692Z,102204.41
2018-02-24T21:07:23.179Z,102208.26
2018-02-24T21:09:50.719Z,102214.70
2018-02-24T21:12:18.218Z,102217.27
2018-02-24T21:14:45.723Z,102222.86
2018-02-24T21:17:13.220Z,102229.73
2018-02-24T21:19:40.703Z,102225.88
2018-02-24T21:22:08.170Z,102231.02
2018-02-24T21:24:35.687Z,102222.41
2018-02-24T21:27:03.247Z,102228.42
2018-02-24T21:29:30.739Z,102229.28
2018-02-24T21:31:58.239Z,102231.86
2018-02-24T21:34:25.737Z,102239.56
2018-02-24T21:36:53.239Z,102241.72
2018-02-24T21:39:20.737Z,102244.29
2018-02-24T21:41:48.227Z,102246.85
2018-02-24T21:44:15.724Z,102253.73
2018-02-24T21:46:43.208Z,102246.83
2018-02-24T21:49:10.698Z,102248.97
2018-02-24T21:51:38.196Z,102256.27
2018-02-24T21:54:05.694Z,102253.25
2018-02-24T21:56:33.214Z,102253.24
2018-02-24T21:59:00.738Z,102256.25
2018-02-24T22:01:28.227Z,102263.53
2018-02-24T22:03:55.718Z,102264.80
2018-02-24T22:06:23.209Z,102271.24
2018-02-24T22:08:50.713Z,102271.65
2018-02-24T22:11:18.208Z,102274.24
2018-02-24T22:13:45.711Z,102269.50
2018-02-24T22:16:13.212Z,102277.19
2018-02-24T22:18:40.736Z,102277.61
2018-02-24T22:21:08.245Z,102276.30
2018-02-24T22:23:35.743Z,102278.03
2018-02-24T22:26:03.248Z,102277.16
2018-02-24T22:28:30.755Z,102284.88
2018-02-24T22:30:58.265Z,102278.00
2018-02-24T22:33:25.779Z,102282.29
2018-02-24T22:35:53.277Z,102282.26
2018-02-24T22:38:20.769Z,102289.15
2018-02-24T22:40:48.268Z,102286.97
2018-02-24T22:43:15.751Z,102288.26
2018-02-24T22:45:43.247Z,102294.68
2018-02-24T22:48:16.428Z,102285.25
2018-02-24T22:50:43.928Z,102294.25
2018-02-24T22:53:11.403Z,102296.80
2018-02-24T22:55:38.887Z,102288.66
2018-02-24T22:58:06.378Z,102299.36
2018-02-24T23:00:33.873Z,102302.36
2018-02-24T23:03:01.378Z,102295.48
2018-02-24T23:05:28.867Z,102301.08
2018-02-24T23:07:56.351Z,102299.76
2018-02-24T23:10:23.851Z,102304.48
2018-02-24T23:12:51.338Z,102302.74
2018-02-24T23:15:18.827Z,102307.46
2018-02-24T23:17:46.331Z,102308.72
2018-02-24T23:20:13.823Z,102307.87
2018-02-24T23:22:41.332Z,102308.28
2018-02-24T23:25:08.836Z,102305.27
2018-02-24T23:27:36.319Z,102300.12
2018-02-24T23:30:03.819Z,102297.52
2018-02-24T23:32:31.312Z,102301.83
2018-02-24T23:34:58.852Z,102303.53
2018-02-24T23:37:26.336Z,102296.66
2018-02-24T23:39:53.841Z,102306.08
2018-02-24T23:42:21.343Z,102304.37
2018-02-24T23:44:48.854Z,102303.06
2018-02-24T23:47:16.359Z,102304.80
2018-02-24T23:49:43.855Z,102309.08
2018-02-24T23:52:11.365Z,102306.50
2018-02-24T23:54:38.868Z,102304.34
2018-02-24T23:57:06.360Z,102309.91
2018-02-24T23:59:33.868Z,102311.63
